sensor_id;sensor_type;location;lat;lon;timestamp;pressure;altitude;pressure_sealevel;temperature;humidity
2192;BME280;1102;49.718;11.902;2022-07-18T00:00:25;97178.81;;;13.12;88.30
2192;BME280;1102;49.718;11.902;2022-07-18T00:02:51;97184.47;;;13.40;86.51
2192;BME280;1102;49.718;11.902;2022-07-18T00:05:18;97198.72;;;13.36;85.04
2192;BME280;1102;49.718;11.902;2022-07-18T00:07:45;97168.06;;;13.38;82.97
2192;BME280;1102;49.718;11.902;2022-07-18T00:10:11;97158.53;;;13.08;83.89
2192;BME280;1102;49.718;11.902;2022-07-18T00:12:38;97168.88;;;13.00;84.14
2192;BME280;1102;49.718;11.902;2022-07-18T00:15:06;97189.13;;;13.14;84.03
2192;BME280;1102;49.718;11.902;2022-07-18T00:17:33;97170.69;;;13.09;84.51
2192;BME280;1102;49.718;11.902;2022-07-18T00:19:59;97165.91;;;13.31;82.84
2192;BME280;1102;49.718;11.902;2022-07-18T00:22:26;97197.75;;;13.40;82.79
2192;BME280;1102;49.718;11.902;2022-07-18T00:24:53;97199.78;;;13.35;85.25
2192;BME280;1102;49.718;11.902;2022-07-18T00:27:19;97189.25;;;13.26;87.00
2192;BME280;1102;49.718;11.902;2022-07-18T00:29:46;97189.25;;;13.26;86.79
2192;BME280;1102;49.718;11.902;2022-07-18T00:32:13;97181.00;;;13.19;86.85
2192;BME280;1102;49.718;11.902;2022-07-18T00:34:40;97145.72;;;13.10;86.03
2192;BME280;1102;49.718;11.902;2022-07-18T00:37:07;97190.31;;;12.95;88.59
2192;BME280;1102;49.718;11.902;2022-07-18T00:39:34;97178.94;;;12.48;93.52
2192;BME280;1102;49.718;11.902;2022-07-18T00:42:00;97143.69;;;12.48;93.88
2192;BME280;1102;49.718;11.902;2022-07-18T00:44:27;97143.09;;;12.33;95.13
2192;BME280;1102;49.718;11.902;2022-07-18T00:46:58;97175.66;;;12.89;91.70
2192;BME280;1102;49.718;11.902;2022-07-18T00:49:25;97171.97;;;12.73;90.92
2192;BME280;1102;49.718;11.902;2022-07-18T00:51:53;97149.78;;;12.39;92.42
2192;BME280;1102;49.718;11.902;2022-07-18T00:54:20;97164.69;;;12.61;93.35
2192;BME280;1102;49.718;11.902;2022-07-18T00:56:48;97155.50;;;12.59;92.55
2192;BME280;1102;49.718;11.902;2022-07-18T00:59:16;97152.09;;;12.50;94.92
2192;BME280;1102;49.718;11.902;2022-07-18T01:01:43;97144.66;;;12.43;96.14
2192;BME280;1102;49.718;11.902;2022-07-18T01:04:20;97165.94;;;12.93;92.54
2192;BME280;1102;49.718;11.902;2022-07-18T01:06:50;97174.59;;;12.82;91.77
2192;BME280;1102;49.718;11.902;2022-07-18T01:09:17;97169.78;;;12.75;92.73
2192;BME280;1102;49.718;11.902;2022-07-18T01:11:45;97175.31;;;12.61;94.60
2192;BME280;1102;49.718;11.902;2022-07-18T01:14:12;97155.31;;;12.17;97.83
2192;BME280;1102;49.718;11.902;2022-07-18T01:16:40;97148.41;;;12.42;97.56
2192;BME280;1102;49.718;11.902;2022-07-18T01:19:06;97176.94;;;12.45;95.74
2192;BME280;1102;49.718;11.902;2022-07-18T01:21:33;97152.28;;;12.36;95.12
2192;BME280;1102;49.718;11.902;2022-07-18T01:24:00;97185.63;;;12.54;94.55
2192;BME280;1102;49.718;11.902;2022-07-18T01:26:26;97164.44;;;12.46;96.72
2192;BME280;1102;49.718;11.902;2022-07-18T01:28:53;97168.75;;;11.95;100.00
2192;BME280;1102;49.718;11.902;2022-07-18T01:31:20;97153.16;;;11.76;100.00
2192;BME280;1102;49.718;11.902;2022-07-18T01:33:47;97187.28;;;12.12;100.00
2192;BME280;1102;49.718;11.902;2022-07-18T01:36:14;97165.78;;;11.96;100.00
2192;BME280;1102;49.718;11.902;2022-07-18T01:38:41;97173.09;;;11.99;100.00
2192;BME280;1102;49.718;11.902;2022-07-18T01:41:07;97161.13;;;11.50;100.00
2192;BME280;1102;49.718;11.902;2022-07-18T01:43:34;97167.03;;;11.64;100.00
2192;BME280;1102;49.718;11.902;2022-07-18T01:46:04;97183.25;;;11.63;100.00
2192;BME280;1102;49.718;11.902;2022-07-18T01:48:31;97158.47;;;11.50;100.00
2192;BME280;1102;49.718;11.902;2022-07-18T01:50:57;97184.50;;;11.65;100.00
2192;BME280;1102;49.718;11.902;2022-07-18T01:53:24;97175.75;;;11.73;100.00
2192;BME280;1102;49.718;11.902;2022-07-18T01:55:51;97189.63;;;11.53;100.00
2192;BME280;1102;49.718;11.902;2022-07-18T01:58:18;97163.44;;;11.43;100.00
2192;BME280;1102;49.718;11.902;2022-07-18T02:00:45;97190.09;;;11.55;100.00
2192;BME280;1102;49.718;11.902;2022-07-18T02:03:12;97185.41;;;11.61;100.00
2192;BME280;1102;49.718;11.902;2022-07-18T02:05:39;97129.16;;;11.29;100.00
2192;BME280;1102;49.718;11.902;2022-07-18T02:08:06;97183.72;;;10.82;100.00
2192;BME280;1102;49.718;11.902;2022-07-18T02:10:32;97175.19;;;11.02;100.00
2192;BME280;1102;49.718;11.902;2022-07-18T02:12:59;97182.25;;;11.24;100.00
2192;BME280;1102;49.718;11.902;2022-07-18T02:15:26;97188.84;;;11.52;100.00
2192;BME280;1102;49.718;11.902;2022-07-18T02:17:53;97146.63;;;11.39;100.00
2192;BME280;1102;49.718;11.902;2022-07-18T02:20:20;97173.69;;;11.18;100.00
2192;BME280;1102;49.718;11.902;2022-07-18T02:22:46;97147.50;;;11.00;100.00
2192;BME280;1102;49.718;11.902;2022-07-18T02:25:13;97183.34;;;11.23;100.00
2192;BME280;1102;49.718;11.902;2022-07-18T02:27:40;97188.59;;;10.97;100.00
2192;BME280;1102;49.718;11.902;2022-07-18T02:30:08;97184.84;;;11.07;100.00
2192;BME280;1102;49.718;11.902;2022-07-18T02:32:36;97188.31;;;11.16;100.00
2192;BME280;1102;49.718;11.902;2022-07-18T02:35:05;97188.84;;;11.35;100.00
2192;BME280;1102;49.718;11.902;2022-07-18T02:37:33;97153.72;;;11.04;100.00
2192;BME280;1102;49.718;11.902;2022-07-18T02:40:00;97183.34;;;11.32;100.00
2192;BME280;1102;49.718;11.902;2022-07-18T02:42:27;97179.31;;;11.25;100.00
2192;BME280;1102;49.718;11.902;2022-07-18T02:44:54;97194.13;;;11.44;100.00
2192;BME280;1102;49.718;11.902;2022-07-18T02:47:20;97189.25;;;11.11;100.00
2192;BME280;1102;49.718;11.902;2022-07-18T02:49:47;97169.41;;;10.91;100.00
2192;BME280;1102;49.718;11.902;2022-07-18T02:52:14;97175.84;;;11.16;100.00
2192;BME280;1102;49.718;11.902;2022-07-18T02:54:41;97185.63;;;11.07;100.00
2192;BME280;1102;49.718;11.902;2022-07-18T02:57:08;97201.94;;;10.83;100.00
2192;BME280;1102;49.718;11.902;2022-07-18T02:59:34;97194.47;;;10.94;100.00
2192;BME280;1102;49.718;11.902;2022-07-18T03:02:01;97203.22;;;11.03;100.00
2192;BME280;1102;49.718;11.902;2022-07-18T03:04:28;97188.72;;;10.92;100.00
2192;BME280;1102;49.718;11.902;2022-07-18T03:06:55;97209.09;;;10.91;100.00
2192;BME280;1102;49.718;11.902;2022-07-18T03:09:22;97205.75;;;10.69;100.00
2192;BME280;1102;49.718;11.902;2022-07-18T03:11:48;97185.38;;;10.69;100.00
2192;BME280;1102;49.718;11.902;2022-07-18T03:14:15;97199.53;;;10.73;100.00
2192;BME280;1102;49.718;11.902;2022-07-18T03:16:42;97202.72;;;10.92;100.00
2192;BME280;1102;49.718;11.902;2022-07-18T03:19:09;97205.44;;;10.70;100.00
2192;BME280;1102;49.718;11.902;2022-07-18T03:21:35;97190.94;;;10.68;100.00
2192;BME280;1102;49.718;11.902;2022-07-18T03:24:02;97189.19;;;10.54;100.00
2192;BME280;1102;49.718;11.902;2022-07-18T03:26:30;97187.03;;;10.56;100.00
2192;BME280;1102;49.718;11.902;2022-07-18T03:28:57;97179.31;;;10.38;100.00
2192;BME280;1102;49.718;11.902;2022-07-18T03:31:24;97189.47;;;10.44;100.00
2192;BME280;1102;49.718;11.902;2022-07-18T03:33:51;97191.97;;;10.49;100.00
2192;BME280;1102;49.718;11.902;2022-07-18T03:36:17;97158.75;;;10.34;100.00
2192;BME280;1102;49.718;11.902;2022-07-18T03:38:44;97187.00;;;10.25;100.00
2192;BME280;1102;49.718;11.902;2022-07-18T03:41:11;97189.75;;;10.43;100.00
2192;BME280;1102;49.718;11.902;2022-07-18T03:43:39;97185.94;;;10.57;100.00
2192;BME280;1102;49.718;11.902;2022-07-18T03:46:06;97188.97;;;10.20;100.00
2192;BME280;1102;49.718;11.902;2022-07-18T03:48:33;97197.28;;;10.27;100.00
2192;BME280;1102;49.718;11.902;2022-07-18T03:51:01;97199.03;;;10.31;100.00
2192;BME280;1102;49.718;11.902;2022-07-18T03:53:27;97144.44;;;10.04;100.00
2192;BME280;1102;49.718;11.902;2022-07-18T03:55:54;97170.88;;;10.13;100.00
2192;BME280;1102;49.718;11.902;2022-07-18T03:58:21;97196.13;;;10.42;100.00
2192;BME280;1102;49.718;11.902;2022-07-18T04:00:47;97183.19;;;9.73;100.00
2192;BME280;1102;49.718;11.902;2022-07-18T04:03:14;97173.28;;;9.56;100.00
2192;BME280;1102;49.718;11.902;2022-07-18T04:05:41;97183.63;;;10.11;100.00
2192;BME280;1102;49.718;11.902;2022-07-18T04:08:08;97200.94;;;10.40;100.00
2192;BME280;1102;49.718;11.902;2022-07-18T04:10:35;97172.28;;;10.11;100.00
2192;BME280;1102;49.718;11.902;2022-07-18T04:13:02;97204.78;;;10.33;100.00
2192;BME280;1102;49.718;11.902;2022-07-18T04:15:29;97173.72;;;10.17;100.00
2192;BME280;1102;49.718;11.902;2022-07-18T04:17:56;97190.53;;;10.43;100.00
2192;BME280;1102;49.718;11.902;2022-07-18T04:20:24;97205.78;;;10.77;100.00
2192;BME280;1102;49.718;11.902;2022-07-18T04:22:56;97200.72;;;10.98;100.00
2192;BME280;1102;49.718;11.902;2022-07-18T04:25:26;97192.53;;;11.25;100.00
2192;BME280;1102;49.718;11.902;2022-07-18T04:27:54;97177.94;;;11.37;100.00
2192;BME280;1102;49.718;11.902;2022-07-18T04:30:23;97195.69;;;11.53;100.00
2192;BME280;1102;49.718;11.902;2022-07-18T04:32:50;97171.06;;;11.44;100.00
2192;BME280;1102;49.718;11.902;2022-07-18T04:35:20;97196.63;;;11.58;100.00
2192;BME280;1102;49.718;11.902;2022-07-18T04:40:35;97182.59;;;11.74;100.00
2192;BME280;1102;49.718;11.902;2022-07-18T04:43:03;97177.16;;;11.62;100.00
2192;BME280;1102;49.718;11.902;2022-07-18T04:45:30;97175.16;;;12.02;100.00
2192;BME280;1102;49.718;11.902;2022-07-18T04:47:57;97177.63;;;11.64;100.00
2192;BME280;1102;49.718;11.902;2022-07-18T04:50:24;97168.91;;;12.07;100.00
2192;BME280;1102;49.718;11.902;2022-07-18T04:52:52;97186.63;;;12.32;100.00
2192;BME280;1102;49.718;11.902;2022-07-18T04:55:20;97182.38;;;12.49;100.00
2192;BME280;1102;49.718;11.902;2022-07-18T04:57:49;97193.75;;;12.58;100.00
2192;BME280;1102;49.718;11.902;2022-07-18T05:00:19;97193.66;;;12.75;100.00
2192;BME280;1102;49.718;11.902;2022-07-18T05:02:48;97191.69;;;13.01;100.00
2192;BME280;1102;49.718;11.902;2022-07-18T05:05:16;97193.03;;;13.08;100.00
2192;BME280;1102;49.718;11.902;2022-07-18T05:07:44;97180.41;;;13.34;100.00
2192;BME280;1102;49.718;11.902;2022-07-18T05:10:14;97161.75;;;13.22;100.00
2192;BME280;1102;49.718;11.902;2022-07-18T05:12:42;97197.47;;;13.33;100.00
2192;BME280;1102;49.718;11.902;2022-07-18T05:15:12;97196.28;;;13.51;100.00
2192;BME280;1102;49.718;11.902;2022-07-18T05:17:39;97165.22;;;13.43;100.00
2192;BME280;1102;49.718;11.902;2022-07-18T05:20:08;97198.44;;;13.28;100.00
2192;BME280;1102;49.718;11.902;2022-07-18T05:22:36;97204.03;;;13.56;100.00
2192;BME280;1102;49.718;11.902;2022-07-18T05:25:05;97205.09;;;13.64;100.00
2192;BME280;1102;49.718;11.902;2022-07-18T05:27:32;97210.78;;;13.96;100.00
2192;BME280;1102;49.718;11.902;2022-07-18T05:29:59;97215.31;;;13.95;100.00
2192;BME280;1102;49.718;11.902;2022-07-18T05:32:27;97188.50;;;14.00;100.00
2192;BME280;1102;49.718;11.902;2022-07-18T05:34:54;97211.16;;;14.06;99.98
2192;BME280;1102;49.718;11.902;2022-07-18T05:37:20;97217.19;;;13.95;100.00
2192;BME280;1102;49.718;11.902;2022-07-18T05:39:47;97183.69;;;14.14;97.89
2192;BME280;1102;49.718;11.902;2022-07-18T05:42:14;97209.25;;;14.40;96.92
2192;BME280;1102;49.718;11.902;2022-07-18T05:44:42;97181.66;;;14.32;96.05
2192;BME280;1102;49.718;11.902;2022-07-18T05:47:08;97211.69;;;14.66;95.93
2192;BME280;1102;49.718;11.902;2022-07-18T05:49:35;97206.63;;;14.97;94.17
2192;BME280;1102;49.718;11.902;2022-07-18T05:52:02;97202.06;;;15.10;92.73
2192;BME280;1102;49.718;11.902;2022-07-18T05:54:32;97203.56;;;15.48;90.70
2192;BME280;1102;49.718;11.902;2022-07-18T05:56:58;97217.03;;;15.63;89.80
2192;BME280;1102;49.718;11.902;2022-07-18T05:59:25;97213.81;;;15.98;86.51
2192;BME280;1102;49.718;11.902;2022-07-18T06:01:52;97197.66;;;16.07;84.77
2192;BME280;1102;49.718;11.902;2022-07-18T06:04:18;97184.09;;;16.27;82.55
2192;BME280;1102;49.718;11.902;2022-07-18T06:06:45;97187.44;;;16.68;81.32
2192;BME280;1102;49.718;11.902;2022-07-18T06:09:12;97199.75;;;17.20;76.90
2192;BME280;1102;49.718;11.902;2022-07-18T06:11:39;97215.44;;;17.72;75.69
2192;BME280;1102;49.718;11.902;2022-07-18T06:14:05;97205.66;;;17.99;72.36
2192;BME280;1102;49.718;11.902;2022-07-18T06:16:32;97222.63;;;18.26;70.34
2192;BME280;1102;49.718;11.902;2022-07-18T06:18:59;97220.97;;;18.60;66.81
2192;BME280;1102;49.718;11.902;2022-07-18T06:21:26;97220.09;;;18.34;63.92
2192;BME280;1102;49.718;11.902;2022-07-18T06:23:53;97220.50;;;18.78;62.19
2192;BME280;1102;49.718;11.902;2022-07-18T06:26:20;97221.28;;;18.78;60.29
2192;BME280;1102;49.718;11.902;2022-07-18T06:28:47;97219.72;;;18.77;59.73
2192;BME280;1102;49.718;11.902;2022-07-18T06:31:14;97227.66;;;18.93;59.43
2192;BME280;1102;49.718;11.902;2022-07-18T06:33:44;97229.97;;;19.17;57.26
2192;BME280;1102;49.718;11.902;2022-07-18T06:36:11;97193.09;;;19.37;55.99
2192;BME280;1102;49.718;11.902;2022-07-18T06:38:39;97230.78;;;19.74;55.43
2192;BME280;1102;49.718;11.902;2022-07-18T06:41:06;97227.41;;;19.77;54.50
2192;BME280;1102;49.718;11.902;2022-07-18T06:43:37;97224.38;;;19.83;53.80
2192;BME280;1102;49.718;11.902;2022-07-18T06:46:05;97190.81;;;19.66;53.03
2192;BME280;1102;49.718;11.902;2022-07-18T06:48:32;97201.50;;;19.62;53.07
2192;BME280;1102;49.718;11.902;2022-07-18T06:51:04;97225.91;;;20.14;54.09
2192;BME280;1102;49.718;11.902;2022-07-18T06:53:32;97217.22;;;19.90;52.57
2192;BME280;1102;49.718;11.902;2022-07-18T06:56:00;97232.69;;;20.37;53.27
2192;BME280;1102;49.718;11.902;2022-07-18T06:58:29;97221.03;;;20.97;52.24
2192;BME280;1102;49.718;11.902;2022-07-18T07:01:00;97226.47;;;21.08;51.46
2192;BME280;1102;49.718;11.902;2022-07-18T07:03:27;97198.09;;;21.14;50.67
2192;BME280;1102;49.718;11.902;2022-07-18T07:05:54;97230.78;;;21.74;50.27
2192;BME280;1102;49.718;11.902;2022-07-18T07:08:20;97238.13;;;21.77;49.51
2192;BME280;1102;49.718;11.902;2022-07-18T07:10:47;97207.88;;;22.12;49.24
2192;BME280;1102;49.718;11.902;2022-07-18T07:13:14;97196.25;;;21.91;48.14
2192;BME280;1102;49.718;11.902;2022-07-18T07:15:43;97230.25;;;22.27;47.93
2192;BME280;1102;49.718;11.902;2022-07-18T07:18:10;97196.28;;;22.05;47.40
2192;BME280;1102;49.718;11.902;2022-07-18T07:20:37;97226.22;;;21.89;48.77
2192;BME280;1102;49.718;11.902;2022-07-18T07:23:04;97216.53;;;21.74;48.37
2192;BME280;1102;49.718;11.902;2022-07-18T07:25:35;97213.13;;;21.77;48.59
2192;BME280;1102;49.718;11.902;2022-07-18T07:28:03;97221.28;;;22.02;48.38
2192;BME280;1102;49.718;11.902;2022-07-18T07:30:31;97214.03;;;22.06;48.65
2192;BME280;1102;49.718;11.902;2022-07-18T07:32:58;97205.72;;;22.71;47.44
2192;BME280;1102;49.718;11.902;2022-07-18T07:35:25;97189.09;;;22.55;46.98
2192;BME280;1102;49.718;11.902;2022-07-18T07:37:55;97216.84;;;22.70;46.99
2192;BME280;1102;49.718;11.902;2022-07-18T07:40:26;97224.22;;;23.09;47.00
2192;BME280;1102;49.718;11.902;2022-07-18T07:43:11;97217.69;;;23.27;45.88
2192;BME280;1102;49.718;11.902;2022-07-18T07:45:38;97223.03;;;23.52;45.76
2192;BME280;1102;49.718;11.902;2022-07-18T07:48:05;97213.06;;;23.28;45.62
2192;BME280;1102;49.718;11.902;2022-07-18T07:50:33;97219.88;;;23.86;44.63
2192;BME280;1102;49.718;11.902;2022-07-18T07:53:00;97222.47;;;24.18;44.39
2192;BME280;1102;49.718;11.902;2022-07-18T07:55:28;97212.75;;;24.28;44.57
2192;BME280;1102;49.718;11.902;2022-07-18T07:57:55;97199.59;;;24.37;44.06
2192;BME280;1102;49.718;11.902;2022-07-18T08:00:22;97189.19;;;24.28;44.28
2192;BME280;1102;49.718;11.902;2022-07-18T08:02:56;97204.59;;;24.42;44.46
2192;BME280;1102;49.718;11.902;2022-07-18T08:05:27;97199.28;;;24.21;43.49
2192;BME280;1102;49.718;11.902;2022-07-18T08:07:54;97202.78;;;24.17;43.78
2192;BME280;1102;49.718;11.902;2022-07-18T08:10:21;97203.97;;;24.09;43.47
2192;BME280;1102;49.718;11.902;2022-07-18T08:12:48;97183.63;;;23.80;44.20
2192;BME280;1102;49.718;11.902;2022-07-18T08:15:15;97172.53;;;24.40;42.91
2192;BME280;1102;49.718;11.902;2022-07-18T08:17:42;97185.09;;;24.72;43.18
2192;BME280;1102;49.718;11.902;2022-07-18T08:20:14;97186.22;;;24.74;42.23
2192;BME280;1102;49.718;11.902;2022-07-18T08:22:53;97209.69;;;24.22;42.40
2192;BME280;1102;49.718;11.902;2022-07-18T08:25:21;97198.94;;;24.11;42.84
2192;BME280;1102;49.718;11.902;2022-07-18T08:27:48;97212.41;;;24.88;42.27
2192;BME280;1102;49.718;11.902;2022-07-18T08:30:16;97217.91;;;25.63;41.24
2192;BME280;1102;49.718;11.902;2022-07-18T08:32:43;97196.75;;;25.55;39.40
2192;BME280;1102;49.718;11.902;2022-07-18T08:35:10;97182.91;;;25.46;39.39
2192;BME280;1102;49.718;11.902;2022-07-18T08:37:37;97204.56;;;25.83;40.18
2192;BME280;1102;49.718;11.902;2022-07-18T08:40:04;97217.53;;;25.65;39.74
2192;BME280;1102;49.718;11.902;2022-07-18T08:42:32;97215.53;;;26.07;39.45
2192;BME280;1102;49.718;11.902;2022-07-18T08:45:01;97212.13;;;25.99;38.94
2192;BME280;1102;49.718;11.902;2022-07-18T08:47:28;97223.25;;;25.74;38.63
2192;BME280;1102;49.718;11.902;2022-07-18T08:49:57;97196.44;;;26.14;38.07
2192;BME280;1102;49.718;11.902;2022-07-18T08:52:25;97223.66;;;26.07;39.20
2192;BME280;1102;49.718;11.902;2022-07-18T08:55:12;97216.38;;;26.31;38.26
2192;BME280;1102;49.718;11.902;2022-07-18T08:57:50;97208.88;;;25.81;38.02
2192;BME280;1102;49.718;11.902;2022-07-18T09:00:19;97188.25;;;26.17;37.70
2192;BME280;1102;49.718;11.902;2022-07-18T09:02:56;97214.84;;;26.84;37.45
2192;BME280;1102;49.718;11.902;2022-07-18T09:05:23;97190.41;;;26.60;37.04
2192;BME280;1102;49.718;11.902;2022-07-18T09:11:03;97206.41;;;25.93;37.83
2192;BME280;1102;49.718;11.902;2022-07-18T09:16:11;97207.31;;;26.71;37.02
2192;BME280;1102;49.718;11.902;2022-07-18T09:18:47;97186.25;;;26.79;36.36
2192;BME280;1102;49.718;11.902;2022-07-18T09:21:17;97195.41;;;27.35;36.41
2192;BME280;1102;49.718;11.902;2022-07-18T09:23:49;97186.94;;;26.83;35.71
2192;BME280;1102;49.718;11.902;2022-07-18T09:29:03;97190.53;;;27.27;34.59
2192;BME280;1102;49.718;11.902;2022-07-18T09:31:50;97192.94;;;26.98;34.52
2192;BME280;1102;49.718;11.902;2022-07-18T09:34:37;97159.88;;;26.79;33.94
2192;BME280;1102;49.718;11.902;2022-07-18T09:37:10;97190.88;;;27.29;33.44
2192;BME280;1102;49.718;11.902;2022-07-18T09:39:38;97167.16;;;26.86;34.32
2192;BME280;1102;49.718;11.902;2022-07-18T09:42:18;97192.91;;;27.45;32.77
2192;BME280;1102;49.718;11.902;2022-07-18T09:45:05;97195.69;;;27.41;32.84
2192;BME280;1102;49.718;11.902;2022-07-18T09:47:48;97184.97;;;27.10;31.48
2192;BME280;1102;49.718;11.902;2022-07-18T09:50:23;97201.03;;;27.01;31.40
2192;BME280;1102;49.718;11.902;2022-07-18T09:53:17;97187.84;;;27.00;32.71
2192;BME280;1102;49.718;11.902;2022-07-18T09:56:04;97195.66;;;27.21;31.75
2192;BME280;1102;49.718;11.902;2022-07-18T09:58:41;97199.03;;;27.29;31.65
2192;BME280;1102;49.718;11.902;2022-07-18T10:01:09;97160.34;;;26.74;31.56
2192;BME280;1102;49.718;11.902;2022-07-18T10:03:36;97184.00;;;27.01;32.61
2192;BME280;1102;49.718;11.902;2022-07-18T10:06:06;97182.31;;;27.50;31.34
2192;BME280;1102;49.718;11.902;2022-07-18T10:08:34;97177.47;;;27.18;32.29
2192;BME280;1102;49.718;11.902;2022-07-18T10:11:03;97186.63;;;27.71;31.19
2192;BME280;1102;49.718;11.902;2022-07-18T10:13:31;97186.97;;;27.30;31.41
2192;BME280;1102;49.718;11.902;2022-07-18T10:15:58;97182.88;;;28.21;30.67
2192;BME280;1102;49.718;11.902;2022-07-18T10:18:27;97183.78;;;28.14;30.53
2192;BME280;1102;49.718;11.902;2022-07-18T10:20:58;97183.19;;;28.07;30.11
2192;BME280;1102;49.718;11.902;2022-07-18T10:31:23;97173.53;;;28.58;30.05
2192;BME280;1102;49.718;11.902;2022-07-18T10:33:52;97178.38;;;28.67;29.78
2192;BME280;1102;49.718;11.902;2022-07-18T10:36:23;97162.19;;;28.43;29.64
2192;BME280;1102;49.718;11.902;2022-07-18T10:39:15;97171.63;;;28.55;29.31
2192;BME280;1102;49.718;11.902;2022-07-18T11:00:25;97175.00;;;29.40;29.21
2192;BME280;1102;49.718;11.902;2022-07-18T11:03:09;97121.66;;;29.10;28.48
2192;BME280;1102;49.718;11.902;2022-07-18T11:05:43;97167.16;;;29.13;28.51
2192;BME280;1102;49.718;11.902;2022-07-18T11:21:22;97161.88;;;28.74;29.30
2192;BME280;1102;49.718;11.902;2022-07-18T11:26:35;97155.72;;;30.18;28.24
2192;BME280;1102;49.718;11.902;2022-07-18T11:29:10;97159.25;;;30.02;28.31
2192;BME280;1102;49.718;11.902;2022-07-18T11:34:11;97142.97;;;29.44;28.94
2192;BME280;1102;49.718;11.902;2022-07-18T11:36:40;97151.22;;;29.57;29.09
2192;BME280;1102;49.718;11.902;2022-07-18T11:39:08;97149.72;;;30.23;27.28
2192;BME280;1102;49.718;11.902;2022-07-18T11:41:37;97127.59;;;28.60;27.88
2192;BME280;1102;49.718;11.902;2022-07-18T11:44:17;97136.53;;;29.22;28.34
2192;BME280;1102;49.718;11.902;2022-07-18T11:46:44;97133.03;;;29.67;28.90
2192;BME280;1102;49.718;11.902;2022-07-18T11:49:11;97128.88;;;29.75;27.03
2192;BME280;1102;49.718;11.902;2022-07-18T11:51:42;97129.94;;;30.70;26.85
2192;BME280;1102;49.718;11.902;2022-07-18T11:54:11;97131.69;;;30.77;26.41
2192;BME280;1102;49.718;11.902;2022-07-18T11:56:49;97122.53;;;31.05;25.76
2192;BME280;1102;49.718;11.902;2022-07-18T11:59:17;97114.81;;;31.69;26.18
2192;BME280;1102;49.718;11.902;2022-07-18T12:01:44;97102.03;;;31.66;25.48
2192;BME280;1102;49.718;11.902;2022-07-18T12:04:17;97127.53;;;31.85;26.26
2192;BME280;1102;49.718;11.902;2022-07-18T12:06:45;97131.09;;;31.73;25.27
2192;BME280;1102;49.718;11.902;2022-07-18T12:09:12;97132.22;;;32.16;25.37
2192;BME280;1102;49.718;11.902;2022-07-18T12:11:39;97134.03;;;32.41;25.32
2192;BME280;1102;49.718;11.902;2022-07-18T12:14:17;97100.50;;;31.65;25.38
2192;BME280;1102;49.718;11.902;2022-07-18T12:16:48;97128.13;;;31.02;25.81
2192;BME280;1102;49.718;11.902;2022-07-18T12:19:38;97116.19;;;30.23;25.28
2192;BME280;1102;49.718;11.902;2022-07-18T12:22:10;97116.84;;;30.14;26.24
2192;BME280;1102;49.718;11.902;2022-07-18T12:24:57;97109.31;;;30.31;26.47
2192;BME280;1102;49.718;11.902;2022-07-18T12:27:34;97100.88;;;30.51;26.64
2192;BME280;1102;49.718;11.902;2022-07-18T12:35:27;97101.69;;;30.26;25.48
2192;BME280;1102;49.718;11.902;2022-07-18T12:38:14;97106.75;;;30.87;25.07
2192;BME280;1102;49.718;11.902;2022-07-18T12:43:10;97065.69;;;30.18;25.14
2192;BME280;1102;49.718;11.902;2022-07-18T12:45:37;97107.06;;;31.24;25.22
2192;BME280;1102;49.718;11.902;2022-07-18T12:48:07;97107.09;;;30.77;25.79
2192;BME280;1102;49.718;11.902;2022-07-18T12:50:35;97113.00;;;30.50;25.38
2192;BME280;1102;49.718;11.902;2022-07-18T12:53:02;97112.13;;;31.13;25.27
2192;BME280;1102;49.718;11.902;2022-07-18T12:55:29;97100.44;;;30.52;25.49
2192;BME280;1102;49.718;11.902;2022-07-18T12:58:01;97069.56;;;30.17;25.83
2192;BME280;1102;49.718;11.902;2022-07-18T13:00:29;97098.66;;;30.84;25.53
2192;BME280;1102;49.718;11.902;2022-07-18T13:02:57;97097.41;;;30.98;25.45
2192;BME280;1102;49.718;11.902;2022-07-18T13:05:29;97090.06;;;31.51;25.59
2192;BME280;1102;49.718;11.902;2022-07-18T13:07:56;97104.09;;;32.55;24.55
2192;BME280;1102;49.718;11.902;2022-07-18T13:10:23;97063.88;;;31.94;26.92
2192;BME280;1102;49.718;11.902;2022-07-18T13:12:50;97092.09;;;31.82;24.63
2192;BME280;1102;49.718;11.902;2022-07-18T13:15:16;97098.31;;;31.16;25.43
2192;BME280;1102;49.718;11.902;2022-07-18T13:17:47;97052.91;;;30.75;26.09
2192;BME280;1102;49.718;11.902;2022-07-18T13:20:18;97068.38;;;30.91;26.08
2192;BME280;1102;49.718;11.902;2022-07-18T13:22:44;97070.22;;;31.16;25.76
2192;BME280;1102;49.718;11.902;2022-07-18T13:25:19;97078.88;;;31.14;25.57
2192;BME280;1102;49.718;11.902;2022-07-18T13:27:46;97079.28;;;30.91;25.18
2192;BME280;1102;49.718;11.902;2022-07-18T13:30:13;97083.44;;;31.83;26.24
2192;BME280;1102;49.718;11.902;2022-07-18T13:32:40;97060.09;;;31.69;26.18
2192;BME280;1102;49.718;11.902;2022-07-18T13:35:11;97070.22;;;31.60;25.82
2192;BME280;1102;49.718;11.902;2022-07-18T13:37:39;97065.19;;;31.27;25.08
2192;BME280;1102;49.718;11.902;2022-07-18T13:40:06;97058.28;;;31.66;25.31
2192;BME280;1102;49.718;11.902;2022-07-18T13:42:35;97069.06;;;31.70;25.93
2192;BME280;1102;49.718;11.902;2022-07-18T13:45:02;97063.94;;;31.50;24.95
2192;BME280;1102;49.718;11.902;2022-07-18T13:47:29;97076.44;;;30.95;25.57
2192;BME280;1102;49.718;11.902;2022-07-18T13:49:55;97067.00;;;30.74;25.25
2192;BME280;1102;49.718;11.902;2022-07-18T13:52:22;97048.84;;;31.98;25.06
2192;BME280;1102;49.718;11.902;2022-07-18T13:54:49;97053.34;;;31.52;25.86
2192;BME280;1102;49.718;11.902;2022-07-18T13:57:19;97041.56;;;31.42;25.11
2192;BME280;1102;49.718;11.902;2022-07-18T13:59:46;97038.50;;;31.93;25.09
2192;BME280;1102;49.718;11.902;2022-07-18T14:02:12;97034.56;;;30.16;26.04
2192;BME280;1102;49.718;11.902;2022-07-18T14:04:40;97042.94;;;30.34;25.98
2192;BME280;1102;49.718;11.902;2022-07-18T14:07:26;97032.66;;;30.38;25.97
2192;BME280;1102;49.718;11.902;2022-07-18T14:09:53;97032.13;;;30.78;25.83
2192;BME280;1102;49.718;11.902;2022-07-18T14:12:20;97029.97;;;30.73;25.99
2192;BME280;1102;49.718;11.902;2022-07-18T14:14:48;97051.25;;;31.12;26.20
2192;BME280;1102;49.718;11.902;2022-07-18T14:17:14;97025.69;;;30.37;26.90
2192;BME280;1102;49.718;11.902;2022-07-18T14:19:41;97046.09;;;30.45;27.52